FMEE

Roland Garros Airport

St Denis, Reunion
METAR FMEE 160530Z AUTO 14010KT 9999 FEW028/// SCT034/// BKN044/// ///CB 25/22 Q1017 TEMPO 10020G30KT 4500 SHRA
Observed Flight Rules
Dec-16 @ 05:30 UTC (22 minutes ago) Visual Flight Rules
Wind Visibility Clouds
140° at 10 knots 10,000+ meters
  • Few at 2,800' AGL
  • Scattered at 3,400' AGL
  • Broken at 4,400' AGL
Temperatures Readings
Current 25°C / 77°F
Dewpoint 22°C / 72°F
Humidity 83%
Altimeter 30.03" Hg
Pressure 1017 hPa
Elevation 25
METAR FMEE 160530Z AUTO 14010KT 9999 FEW028/// SCT034/// BKN044/// ///CB 25/22 Q1017 TEMPO 10020G30KT 4500 SHRA
Observed Flight Rules
Dec-16 @ 05:30 UTC
(22 minutes ago)
VFR
Wind Visibility
140° at 10 knots 10,000+ meters
Clouds
  • Few at 2,800' AGL
  • Scattered at 3,400' AGL
  • Broken at 4,400' AGL
Temperature Dewpoint
25°C / 77°F 22°C / 72°F
Humidity Altimeter Pressure
83% 30.03" Hg 1017 hPa